Rapid City, SD (57701)

10:30 AM MDT on March 23, 2017 (GMT -0600)
MD4997 | | Change Station

Elev 3263 ft 44.08 °N, 103.21 °W | Updated 23 minutes ago

Partly Cloudy
Partly Cloudy
52.0 °F
Feels Like 52.0 °F
N
4.0
Wind Variable Wind from ESE
Gusts 10.0 mph

Today
High -- | Low -- °F
--% Chance of Precip.
Yesterday
High -- | Low -- °F
Precip. -- in
Pressure 29.65 in
Visibility 10.0 miles
Clouds Clear
Dew Point 44 °F
Humidity 73%
Rainfall 0.01 in
Snow Depth Not available.
6:49 AM 7:09 PM
Waning Crescent, 22% visible
METAR KRAP 231552Z 34011KT 10SM CLR 12/05 A2964 RMK AO2 SLP038 T01220050
Pressure 29.65 in
Visibility 10.0 miles
Clouds Clear
Dew Point 44 °F
Humidity 73%
Rainfall 0.01 in
Snow Depth Not available.
6:49 AM 7:09 PM
Waning Crescent, 22% visible
METAR KRAP 231552Z 34011KT 10SM CLR 12/05 A2964 RMK AO2 SLP038 T01220050

Get Severe Weather Alerts

Thanks for signing up!

Be on the lookout for a verification email in your inbox.

You'll start receiving the daily forecast at 8 AM.

×

10-Day Weather Forecast

Almanac

Astronomy

Mar. 23, 2017 Rise Set
Actual Time
Civil Twilight
Nautical Twilight
Astronomical Twilight
Moon
Length of Visible Light
Length of Day
Tomorrow will be .
, % of the Moon is Illuminated

Today's Extremes

State Highs State Lows

Community

WunderPhotos

Upload Photos

1,962,540 photos uploaded!

WunderBlog® & News

Nearby

Air Quality

  Air Quality AQ Index Pollutant
Not available.

Snow Depth

Station Depth Elevation

Earthquake Activity

City Distance Mag. Time & Date
Minimum magnitude displayed is 2.5.

Earthquake Activity

City Distance Mag. Time & Date
Minimum magnitude displayed is 2.5.

Coastal Water Temperatures

Place Temperature

Stations

Nearby Weather Stations

Station Location Temp. Windchill Dew Point Humidity Wind Precip. Elev Updated Type
                   

Watches & Warnings

There are currently no watches in effect.